Time;durP1;ratioP1;P1;durP2;ratioP2;P2;SDS_P1;SDS_P2;PMS_P1;PMS_P2;Temp;Humidity;BMP_temperature;BMP_pressure;BME280_temperature;BME280_humidity;BME280_pressure;Samples;Min_cycle;Max_cycle;Signal;HPM_P1;HPM_P2
2022/08/24 00:04:52;;;;;;;14.50;11.60;;;;;;;15.24;100.00;97056.00;10535840;28;20243;-75
2022/08/24 00:09:52;;;;;;;12.70;11.15;;;;;;;15.19;100.00;97051.25;10535311;28;20243;-75
2022/08/24 00:14:53;;;;;;;16.45;11.82;;;;;;;15.19;100.00;97059.19;10534996;28;20929;-75
2022/08/24 00:19:54;;;;;;;13.60;12.20;;;;;;;15.21;100.00;97054.53;10534947;28;20202;-75
2022/08/24 00:24:55;;;;;;;13.07;11.05;;;;;;;15.21;100.00;97057.16;10516684;28;20194;-75
2022/08/24 00:29:55;;;;;;;16.83;12.25;;;;;;;15.12;100.00;97053.75;10534625;28;20561;-75
2022/08/24 00:34:56;;;;;;;13.82;12.38;;;;;;;15.25;100.00;97052.34;10516069;28;20290;-75
2022/08/24 00:39:56;;;;;;;13.93;11.40;;;;;;;15.20;100.00;97050.25;10533956;28;20806;-75
2022/08/24 00:44:57;;;;;;;14.60;11.88;;;;;;;15.21;100.00;97048.44;10516150;28;20191;-75
2022/08/24 00:50:06;;;;;;;15.20;12.18;;;;;;;15.24;100.00;97046.25;10515725;28;20280;-75
2022/08/24 00:55:10;;;;;;;17.30;11.70;;;;;;;15.27;100.00;97039.81;10498823;28;20283;-75
2022/08/24 01:00:21;;;;;;;12.35;11.07;;;;;;;15.22;100.00;97044.78;10515188;28;20189;-75
2022/08/24 01:05:21;;;;;;;14.43;11.40;;;;;;;15.17;100.00;97045.31;10504751;28;20192;-75
2022/08/24 01:10:24;;;;;;;14.48;11.30;;;;;;;15.28;100.00;97039.63;10523740;28;20192;-75
2022/08/24 01:15:24;;;;;;;18.75;11.55;;;;;;;15.24;100.00;97038.34;10524264;28;20268;-75
2022/08/24 01:20:25;;;;;;;12.23;10.93;;;;;;;15.28;100.00;97039.63;10541489;28;20190;-75
2022/08/24 01:25:28;;;;;;;11.85;10.55;;;;;;;15.31;100.00;97036.63;10523338;28;20214;-76
2022/08/24 01:30:28;;;;;;;11.70;10.35;;;;;;;15.29;100.00;97038.63;10523765;28;20191;-75
2022/08/24 01:35:30;;;;;;;13.35;10.35;;;;;;;15.29;100.00;97033.34;10506063;28;20272;-76
2022/08/24 01:40:35;;;;;;;14.60;11.13;;;;;;;15.24;100.00;97024.34;10522832;28;20210;-75
2022/08/24 01:45:36;;;;;;;14.18;10.57;;;;;;;15.26;100.00;97025.78;10540820;28;20202;-75
2022/08/24 01:50:38;;;;;;;14.25;10.73;;;;;;;15.28;100.00;97022.97;10522227;28;20187;-76
2022/08/24 01:55:40;;;;;;;13.15;11.18;;;;;;;15.27;100.00;97023.97;10521860;28;20222;-76
2022/08/24 02:00:43;;;;;;;14.65;11.95;;;;;;;15.30;100.00;97037.63;10521884;28;20182;-75
2022/08/24 02:05:43;;;;;;;12.10;10.43;;;;;;;15.36;100.00;97036.09;10505772;28;20244;-75
2022/08/24 02:10:48;;;;;;;13.38;11.88;;;;;;;15.36;100.00;97033.47;10521472;28;20223;-75
2022/08/24 02:15:48;;;;;;;10.93;9.82;;;;;;;15.34;100.00;97033.66;10521135;28;20769;-75
2022/08/24 02:20:49;;;;;;;13.43;9.48;;;;;;;15.37;100.00;97036.91;10521528;28;20205;-76
2022/08/24 02:25:49;;;;;;;13.00;10.10;;;;;;;15.30;100.00;97032.34;10521170;28;20666;-75
2022/08/24 02:30:50;;;;;;;12.88;10.27;;;;;;;15.34;100.00;97031.00;10539058;28;20179;-75
2022/08/24 02:35:52;;;;;;;16.13;10.10;;;;;;;15.42;100.00;97029.25;10520338;28;20225;-75
2022/08/24 02:40:52;;;;;;;11.65;10.45;;;;;;;15.22;100.00;97029.78;10520680;28;20217;-75
2022/08/24 02:45:53;;;;;;;17.38;11.40;;;;;;;15.23;100.00;97034.06;10520399;28;20239;-75
2022/08/24 02:50:56;;;;;;;15.70;11.93;;;;;;;15.21;100.00;97032.59;10520087;28;20187;-76
2022/08/24 02:55:56;;;;;;;13.85;11.27;;;;;;;15.32;100.00;97035.63;10519838;28;20226;-75
2022/08/24 03:00:57;;;;;;;14.43;11.70;;;;;;;15.31;100.00;97043.72;10519676;28;20179;-76
2022/08/24 03:05:58;;;;;;;13.57;11.40;;;;;;;15.31;100.00;97049.00;10500801;28;20191;-75
2022/08/24 03:10:59;;;;;;;13.18;11.43;;;;;;;15.34;100.00;97044.19;10473674;28;20195;-76
2022/08/24 03:16:00;;;;;;;16.58;11.85;;;;;;;15.26;100.00;97052.16;10473652;28;20215;-75
2022/08/24 03:21:02;;;;;;;16.17;11.75;;;;;;;15.32;100.00;97050.66;10473652;28;20202;-76
2022/08/24 03:26:05;;;;;;;13.93;10.65;;;;;;;15.42;100.00;97056.50;10472678;28;20249;-76
2022/08/24 03:31:06;;;;;;;10.63;9.48;;;;;;;15.49;100.00;97051.31;10473596;28;20334;-76
2022/08/24 03:36:07;;;;;;;10.20;9.30;;;;;;;15.51;100.00;97057.22;10472741;28;20214;-76
2022/08/24 03:41:08;;;;;;;12.52;10.25;;;;;;;15.44;100.00;97048.41;10472786;28;20195;-76
2022/08/24 03:46:10;;;;;;;11.10;10.00;;;;;;;15.50;100.00;97064.34;10472486;28;20289;-76
2022/08/24 03:51:14;;;;;;;11.40;9.82;;;;;;;15.52;100.00;97058.88;10472267;28;20686;-75
2022/08/24 03:56:15;;;;;;;10.82;9.82;;;;;;;15.54;100.00;97064.78;10455253;28;20258;-76
2022/08/24 04:01:16;;;;;;;14.65;9.27;;;;;;;15.49;100.00;97061.88;10471872;28;20221;-75
2022/08/24 04:06:17;;;;;;;13.70;9.35;;;;;;;15.58;100.00;97071.38;10474830;28;20271;-75
2022/08/24 04:11:22;;;;;;;12.13;8.85;;;;;;;15.57;100.00;97072.34;10474752;28;20284;-75
2022/08/24 04:16:23;;;;;;;10.52;9.48;;;;;;;15.63;100.00;97065.56;10489176;28;20659;-75
2022/08/24 04:21:34;;;;;;;9.82;8.82;;;;;;;15.65;100.00;97067.03;10517721;28;20193;-75
2022/08/24 04:26:36;;;;;;;12.00;8.95;;;;;;;15.66;100.00;97066.00;10535855;28;20183;-75
2022/08/24 04:31:37;;;;;;;9.70;8.52;;;;;;;15.71;100.00;97062.81;10500872;28;20601;-74
2022/08/24 04:36:40;;;;;;;9.32;7.90;;;;;;;15.74;100.00;97061.66;10500525;28;20215;-74
2022/08/24 04:41:41;;;;;;;12.88;9.32;;;;;;;15.70;100.00;97059.38;10517766;28;20198;-74
2022/08/24 04:46:42;;;;;;;9.35;8.40;;;;;;;15.69;100.00;97062.19;10505924;28;20197;-73
2022/08/24 04:51:43;;;;;;;9.68;8.77;;;;;;;15.78;100.00;97070.91;10518403;28;20189;-74
2022/08/24 04:56:43;;;;;;;10.23;9.23;;;;;;;15.89;100.00;97073.06;10517076;28;20230;-74
2022/08/24 05:01:44;;;;;;;10.25;8.75;;;;;;;15.98;100.00;97069.34;10515750;28;20666;-75
2022/08/24 05:06:44;;;;;;;9.80;8.50;;;;;;;16.07;100.00;97077.22;10516404;28;20204;-75
2022/08/24 05:11:45;;;;;;;13.45;7.80;;;;;;;16.18;100.00;97076.72;10515848;28;20691;-76
2022/08/24 05:16:46;;;;;;;14.60;8.50;;;;;;;16.23;100.00;97080.47;10515847;28;20329;-74
2022/08/24 05:21:46;;;;;;;8.18;7.25;;;;;;;16.31;100.00;97079.56;10516273;28;20646;-75
2022/08/24 05:26:47;;;;;;;12.18;7.30;;;;;;;16.37;100.00;97084.13;10515815;28;20210;-75
2022/08/24 05:31:48;;;;;;;8.70;7.80;;;;;;;16.43;100.00;97079.88;10515517;28;20265;-74
2022/08/24 05:36:50;;;;;;;9.13;7.68;;;;;;;16.53;100.00;97075.13;10533330;28;20245;-73
2022/08/24 05:42:20;;;;;;;9.43;7.38;;;;;;;16.67;100.00;97073.47;10502349;28;20195;-74
2022/08/24 05:47:22;;;;;;;9.70;7.65;;;;;;;16.77;100.00;97073.19;10499065;28;20183;-74
2022/08/24 05:52:23;;;;;;;12.35;7.80;;;;;;;17.09;100.00;97069.28;10522022;28;20595;-74
2022/08/24 05:57:29;;;;;;;12.45;7.55;;;;;;;17.10;100.00;97065.59;10522020;28;20318;-75
2022/08/24 06:02:55;;;;;;;11.52;9.18;;;;;;;16.88;100.00;97074.56;10496597;28;20189;-75
2022/08/24 06:07:56;;;;;;;13.63;8.13;;;;;;;17.21;100.00;97071.41;10522408;28;20197;-75
2022/08/24 06:12:57;;;;;;;11.55;8.48;;;;;;;17.48;100.00;97067.97;10550378;28;20221;-73
2022/08/24 06:17:57;;;;;;;10.35;7.22;;;;;;;17.91;100.00;97060.97;10522435;28;20179;-74
2022/08/24 06:22:58;;;;;;;14.18;8.57;;;;;;;17.63;100.00;97056.47;10521320;28;20190;-73
2022/08/24 06:28:05;;;;;;;14.77;8.30;;;;;;;17.65;100.00;97049.16;10521847;28;20193;-73
2022/08/24 06:33:06;;;;;;;11.35;8.18;;;;;;;17.90;100.00;97060.16;10520544;28;20268;-75
2022/08/24 06:38:13;;;;;;;10.57;7.63;;;;;;;18.24;100.00;97050.56;10521122;28;20229;-75
2022/08/24 06:43:14;;;;;;;15.93;7.35;;;;;;;18.38;100.00;97055.91;10521528;28;20203;-75
2022/08/24 06:48:24;;;;;;;14.27;8.20;;;;;;;18.67;100.00;97057.47;10521478;28;20189;-74
2022/08/24 06:53:26;;;;;;;15.10;7.70;;;;;;;18.53;100.00;97065.38;10520042;28;20267;-74
2022/08/24 06:58:28;;;;;;;15.70;7.40;;;;;;;18.95;100.00;97067.97;10519690;28;20951;-75
2022/08/24 07:03:29;;;;;;;12.70;7.93;;;;;;;19.24;100.00;97068.66;10518582;28;20270;-75
2022/08/24 07:08:43;;;;;;;14.60;8.00;;;;;;;19.26;100.00;97058.63;10512781;28;20186;-75
2022/08/24 07:13:46;;;;;;;16.02;9.15;;;;;;;18.87;100.00;97061.00;10518389;28;20372;-75
2022/08/24 07:18:47;;;;;;;13.52;9.07;;;;;;;19.31;100.00;97055.34;10528717;28;20182;-76
2022/08/24 07:30:21;;;;;;;15.82;8.35;;;;;;;20.58;100.00;97052.47;10548632;28;20269;-74
2022/08/24 07:35:27;;;;;;;16.92;9.20;;;;;;;20.99;100.00;97057.41;10516295;28;20305;-74
2022/08/24 07:40:28;;;;;;;21.00;13.43;;;;;;;21.23;100.00;97060.34;10518167;28;20199;-74
2022/08/24 07:45:29;;;;;;;15.45;8.98;;;;;;;21.71;100.00;97058.97;10535165;28;20265;-74
2022/08/24 07:50:30;;;;;;;18.00;8.35;;;;;;;22.04;100.00;97053.31;10516668;28;20638;-74
2022/08/24 07:55:30;;;;;;;13.95;7.22;;;;;;;22.53;100.00;97058.75;10534572;28;20377;-74
2022/08/24 08:00:31;;;;;;;17.33;9.45;;;;;;;21.58;100.00;97075.91;10515970;28;20201;-73
2022/08/24 08:05:37;;;;;;;16.35;10.82;;;;;;;21.50;100.00;97078.81;10515920;28;20183;-75
2022/08/24 08:10:39;;;;;;;13.77;10.18;;;;;;;20.95;100.00;97082.84;10499458;28;20609;-74
2022/08/24 08:15:40;;;;;;;15.38;9.63;;;;;;;20.91;100.00;97091.50;10515613;28;20708;-74
2022/08/24 08:20:43;;;;;;;18.95;10.25;;;;;;;20.23;100.00;97100.69;10515680;28;20658;-74
2022/08/24 08:25:49;;;;;;;16.83;9.25;;;;;;;19.96;100.00;97109.53;10533472;28;20179;-75
2022/08/24 08:30:55;;;;;;;17.05;9.85;;;;;;;20.02;100.00;97099.13;10515393;28;20685;-74
2022/08/24 08:36:08;;;;;;;17.75;9.48;;;;;;;19.73;100.00;97111.78;10514861;28;20806;-75
2022/08/24 08:41:16;;;;;;;21.85;11.63;;;;;;;19.69;100.00;97114.03;10515254;28;20218;-73
2022/08/24 08:46:39;;;;;;;21.60;11.85;;;;;;;19.72;100.00;97121.59;10515234;28;20181;-74
2022/08/24 08:51:50;;;;;;;16.10;11.18;;;;;;;19.88;100.00;97120.41;10499793;28;20186;-74
2022/08/24 08:57:35;;;;;;;19.38;9.77;;;;;;;20.07;100.00;97120.59;10515501;28;20276;-73
2022/08/24 09:02:57;;;;;;;18.52;10.68;;;;;;;20.53;100.00;97110.88;10488223;28;20288;-73
2022/08/24 09:08:23;;;;;;;12.68;9.25;;;;;;;20.28;100.00;97108.91;10514684;28;20226;-74
2022/08/24 09:13:59;;;;;;;16.85;7.80;;;;;;;21.21;100.00;97102.38;10515076;28;20221;-74
2022/08/24 09:19:24;;;;;;;13.75;9.07;;;;;;;20.71;100.00;97107.56;10465944;28;20224;-75
2022/08/24 09:24:43;;;;;;;14.88;9.13;;;;;;;20.81;100.00;97121.22;10517521;28;20190;-73
2022/08/24 09:30:18;;;;;;;18.52;8.80;;;;;;;20.53;100.00;97119.66;10509594;28;20658;-74
2022/08/24 09:35:23;;;;;;;14.15;7.68;;;;;;;21.23;100.00;97116.28;10544262;28;20218;-72
2022/08/24 09:40:33;;;;;;;13.80;8.00;;;;;;;21.24;100.00;97114.44;10543483;28;20191;-74
2022/08/24 09:45:52;;;;;;;13.77;7.97;;;;;;;21.84;100.00;97106.84;10513647;28;20188;-74
2022/08/24 09:51:04;;;;;;;14.30;7.80;;;;;;;22.26;100.00;97095.56;10498027;28;20273;-74
2022/08/24 09:56:25;;;;;;;14.98;7.63;;;;;;;22.97;97.72;97064.75;10498584;28;20239;-75
2022/08/24 10:02:11;;;;;;;12.23;6.38;;;;;;;23.14;96.70;97072.16;10497162;28;20233;-74
2022/08/24 10:07:23;;;;;;;11.85;6.85;;;;;;;22.13;100.00;97098.38;10497212;28;20234;-74
2022/08/24 10:12:45;;;;;;;15.50;6.88;;;;;;;22.79;99.97;97073.59;10517109;28;20191;-74
2022/08/24 10:18:11;;;;;;;12.65;6.45;;;;;;;22.59;100.00;97081.06;10519966;28;20671;-75
2022/08/24 10:23:35;;;;;;;14.10;8.00;;;;;;;22.62;100.00;97084.09;10536761;28;20182;-74
2022/08/24 10:28:50;;;;;;;15.70;7.95;;;;;;;21.81;100.00;97091.28;10517892;28;20252;-73
2022/08/24 10:34:23;;;;;;;15.02;8.70;;;;;;;22.08;100.00;97080.34;10519077;28;20284;-76
2022/08/24 10:39:50;;;;;;;16.00;8.73;;;;;;;22.47;100.00;97074.84;10483385;28;20223;-74
2022/08/24 10:45:03;;;;;;;14.40;7.35;;;;;;;23.46;97.64;97064.66;10477388;28;20208;-74
2022/08/24 10:50:19;;;;;;;13.65;8.05;;;;;;;23.53;95.13;97063.75;10501753;28;20198;-73
2022/08/24 10:55:27;;;;;;;15.40;8.50;;;;;;;23.90;91.28;97052.84;10518239;28;20222;-73
2022/08/24 11:00:28;;;;;;;18.17;9.45;;;;;;;24.99;82.97;97019.16;10535944;28;20203;-73
2022/08/24 11:05:30;;;;;;;11.18;7.57;;;;;;;25.21;83.11;97040.72;10535854;28;20193;-73
2022/08/24 11:10:34;;;;;;;17.63;10.40;;;;;;;24.33;85.59;97048.94;10517654;28;20550;-73
2022/08/24 11:15:50;;;;;;;12.18;9.45;;;;;;;25.15;83.97;97045.16;10515326;28;20233;-73
2022/08/24 11:20:53;;;;;;;19.65;10.73;;;;;;;26.37;79.01;97025.81;10492528;28;20194;-72
2022/08/24 11:26:02;;;;;;;15.48;9.30;;;;;;;27.61;72.56;96995.53;10493355;28;20223;-72
2022/08/24 11:31:02;;;;;;;16.42;9.38;;;;;;;27.27;71.92;97005.75;10492706;28;20195;-72
2022/08/24 11:36:14;;;;;;;16.17;9.15;;;;;;;27.01;74.21;97027.88;10474935;28;20238;-72
2022/08/24 11:41:23;;;;;;;15.57;9.23;;;;;;;27.24;71.34;97009.75;10492790;28;20195;-72
2022/08/24 11:46:45;;;;;;;18.10;10.07;;;;;;;26.49;74.81;97033.72;10494979;28;20337;-72
2022/08/24 11:51:59;;;;;;;16.42;8.40;;;;;;;27.07;70.08;96993.75;10516384;28;20194;-73
2022/08/24 11:57:27;;;;;;;12.75;9.27;;;;;;;26.46;71.84;97020.78;10515559;28;20226;-72
2022/08/24 12:02:57;;;;;;;15.45;8.57;;;;;;;25.78;76.42;97059.34;10515159;28;20554;-72
2022/08/24 12:08:04;;;;;;;13.10;9.20;;;;;;;25.28;78.08;97062.81;10497523;28;20203;-71
2022/08/24 12:13:26;;;;;;;17.77;10.20;;;;;;;24.46;83.78;97088.88;10535849;28;20190;-71
2022/08/24 12:18:45;;;;;;;16.88;9.38;;;;;;;24.04;87.27;97075.63;10527277;28;20684;-71
2022/08/24 12:23:59;;;;;;;20.83;9.63;;;;;;;24.00;90.52;97079.84;10510316;28;20182;-71
2022/08/24 12:29:14;;;;;;;16.30;10.43;;;;;;;24.35;82.89;97039.63;10510375;28;20689;-71
2022/08/24 12:34:30;;;;;;;14.93;9.25;;;;;;;24.11;85.04;97049.56;10513035;28;20217;-71
2022/08/24 12:39:35;;;;;;;17.08;8.85;;;;;;;24.84;83.38;97046.47;10514356;28;20197;-71
2022/08/24 12:44:48;;;;;;;18.60;9.20;;;;;;;26.81;72.08;96979.25;10514682;28;20229;-71
2022/08/24 12:49:56;;;;;;;12.00;8.43;;;;;;;26.99;70.29;96970.81;10532310;28;20194;-71
2022/08/24 12:55:06;;;;;;;14.23;9.38;;;;;;;26.95;69.18;96977.78;10513314;28;20682;-71
2022/08/24 13:00:33;;;;;;;13.02;7.80;;;;;;;28.23;66.13;96953.59;10536673;28;20190;-72
2022/08/24 13:05:43;;;;;;;12.40;9.00;;;;;;;28.29;66.11;96965.22;10522905;28;20248;-71
2022/08/24 13:10:51;;;;;;;14.93;8.75;;;;;;;27.90;66.54;96960.16;10540699;28;20190;-72
2022/08/24 13:15:55;;;;;;;20.75;9.30;;;;;;;27.50;68.49;96988.47;10522383;28;20257;-71
2022/08/24 13:20:55;;;;;;;14.38;9.15;;;;;;;27.53;67.89;96985.25;10522221;28;20197;-72
2022/08/24 13:25:58;;;;;;;18.35;10.60;;;;;;;26.43;70.81;97016.75;10540243;28;20202;-71
2022/08/24 13:31:11;;;;;;;18.08;10.50;;;;;;;26.06;69.52;96985.13;10540095;28;20201;-71
2022/08/24 13:36:29;;;;;;;14.68;10.15;;;;;;;27.54;68.64;96981.50;10539890;28;20271;-72
2022/08/24 13:41:44;;;;;;;16.13;9.95;;;;;;;29.09;63.07;96934.34;10539395;28;20201;-72
2022/08/24 13:46:53;;;;;;;14.60;11.43;;;;;;;29.50;58.53;96878.44;10526327;28;20285;-71
2022/08/24 13:52:06;;;;;;;15.98;10.68;;;;;;;29.62;60.01;96912.41;10543152;28;20267;-72
2022/08/24 13:57:12;;;;;;;15.63;10.25;;;;;;;29.25;62.32;96946.78;10559670;28;20237;-72
2022/08/24 14:08:57;;;;;;;16.60;11.40;;;;;;;29.04;61.87;96943.25;10557249;22;20240;-71
2022/08/24 14:14:06;;;;;;;17.38;11.77;;;;;;;27.94;63.68;96947.78;10454574;28;20262;-71
2022/08/24 14:19:16;;;;;;;20.63;11.75;;;;;;;28.68;64.78;96980.16;10425524;28;20194;-71
2022/08/24 14:24:25;;;;;;;20.15;11.23;;;;;;;29.00;62.04;96943.00;10439307;28;20188;-71
2022/08/24 14:29:28;;;;;;;14.10;11.52;;;;;;;30.64;55.86;96869.78;10440610;28;20216;-71
2022/08/24 14:35:00;;;;;;;16.10;10.90;;;;;;;31.51;53.91;96855.44;10445123;28;20256;-72
2022/08/24 14:40:22;;;;;;;18.45;11.43;;;;;;;33.68;49.56;96837.47;10443508;28;20660;-72
2022/08/24 14:45:36;;;;;;;14.82;10.32;;;;;;;35.62;43.21;96758.69;10450417;28;20701;-72
2022/08/24 14:50:56;;;;;;;18.67;10.70;;;;;;;34.85;45.20;96760.84;10435663;28;20300;-71
2022/08/24 14:56:13;;;;;;;13.80;9.57;;;;;;;31.67;50.83;96806.53;10453441;28;20227;-72
2022/08/24 15:01:13;;;;;;;16.10;10.52;;;;;;;29.12;58.76;96901.44;10422248;28;20203;-72
2022/08/24 15:06:48;;;;;;;16.98;9.48;;;;;;;27.14;60.64;96888.66;10452348;28;20597;-72
2022/08/24 15:11:49;;;;;;;15.35;9.75;;;;;;;26.84;61.57;96896.22;10446552;28;20561;-71
2022/08/24 15:16:58;;;;;;;14.93;9.30;;;;;;;26.12;64.23;96921.56;10452286;28;20578;-72
2022/08/24 15:22:02;;;;;;;17.70;11.35;;;;;;;26.16;66.88;96955.72;10433386;28;20660;-72
2022/08/24 15:27:21;;;;;;;19.48;11.27;;;;;;;25.96;68.55;96961.63;10452398;28;20242;-73
2022/08/24 15:32:24;;;;;;;16.25;10.40;;;;;;;25.84;70.18;96973.56;10451848;28;20222;-73
2022/08/24 15:37:34;;;;;;;17.60;10.38;;;;;;;26.59;67.41;96944.38;10433096;28;20230;-73
2022/08/24 15:42:35;;;;;;;11.63;9.32;;;;;;;27.57;64.47;96916.38;10451384;28;20192;-73
2022/08/24 15:47:38;;;;;;;12.93;9.35;;;;;;;28.55;60.28;96882.53;10450958;28;20250;-72
2022/08/24 15:52:47;;;;;;;12.05;9.38;;;;;;;29.73;57.74;96857.31;10432743;28;20197;-72
2022/08/24 15:57:47;;;;;;;12.85;8.10;;;;;;;31.65;52.78;96826.63;10405856;28;20216;-73
2022/08/24 16:02:48;;;;;;;16.27;8.73;;;;;;;32.46;50.84;96804.06;10409494;28;20198;-74
2022/08/24 16:08:00;;;;;;;11.50;8.10;;;;;;;32.85;48.77;96773.06;10420273;28;20227;-73
2022/08/24 16:13:18;;;;;;;12.98;8.90;;;;;;;30.22;56.17;96848.41;10426347;28;20443;-73
2022/08/24 16:18:19;;;;;;;16.00;9.73;;;;;;;28.56;60.35;96907.59;10392928;28;20204;-73
2022/08/24 16:23:23;;;;;;;12.65;9.30;;;;;;;28.32;60.52;96902.69;10401286;28;20188;-75
2022/08/24 16:28:24;;;;;;;15.43;10.25;;;;;;;27.57;62.41;96903.75;10435514;28;20566;-74
2022/08/24 16:33:31;;;;;;;12.65;9.10;;;;;;;28.43;59.37;96880.06;10451675;28;20216;-74
2022/08/24 16:38:32;;;;;;;13.98;8.65;;;;;;;28.47;59.99;96894.66;10429157;28;20713;-74
2022/08/24 16:43:34;;;;;;;15.57;9.43;;;;;;;27.85;60.96;96890.94;10436297;28;20212;-73
2022/08/24 16:48:35;;;;;;;11.15;9.65;;;;;;;27.14;63.89;96924.44;10432723;28;20195;-74
2022/08/24 16:53:38;;;;;;;14.20;10.00;;;;;;;25.61;67.40;96956.59;10451686;28;20218;-74
2022/08/24 16:58:40;;;;;;;13.65;10.30;;;;;;;25.59;69.54;96964.06;10434718;28;20216;-74
2022/08/24 17:03:41;;;;;;;12.93;10.88;;;;;;;25.67;69.70;96970.88;10454422;28;20262;-75
2022/08/24 17:08:41;;;;;;;21.02;10.82;;;;;;;25.34;71.73;96991.34;10451401;28;20243;-75
2022/08/24 17:13:41;;;;;;;13.97;10.47;;;;;;;25.24;71.23;96973.19;10450836;28;20223;-73
2022/08/24 17:18:42;;;;;;;17.65;9.85;;;;;;;24.72;74.95;97001.78;10451550;28;20529;-73
2022/08/24 17:23:43;;;;;;;12.73;10.95;;;;;;;24.12;77.51;96999.50;10432660;28;20192;-73
2022/08/24 17:28:46;;;;;;;15.05;11.52;;;;;;;23.79;80.46;97003.63;10451420;28;20192;-75
2022/08/24 17:33:46;;;;;;;16.75;12.05;;;;;;;23.20;83.60;97009.75;10416090;28;20212;-74
2022/08/24 17:38:49;;;;;;;23.38;13.32;;;;;;;22.95;89.01;97026.72;10428713;28;20264;-76
2022/08/24 17:43:50;;;;;;;17.88;14.32;;;;;;;21.20;100.00;97037.59;10424377;28;20660;-74
2022/08/24 17:48:50;;;;;;;26.02;13.68;;;;;;;21.08;100.00;97044.66;10432006;28;20192;-74
2022/08/24 17:53:51;;;;;;;21.92;14.93;;;;;;;20.48;100.00;97040.44;10435551;28;20211;-74
2022/08/24 18:04:10;;;;;;;23.10;15.65;;;;;;;20.07;100.00;97049.59;10436955;28;20196;-74
2022/08/24 18:09:16;;;;;;;20.80;15.88;;;;;;;19.73;100.00;97046.16;10435656;28;20192;-74
2022/08/24 18:14:17;;;;;;;21.50;17.88;;;;;;;19.15;100.00;97054.72;10431517;28;20710;-75
2022/08/24 18:20:13;;;;;;;25.92;18.02;;;;;;;19.03;100.00;97062.47;10415329;28;20211;-73
2022/08/24 18:25:15;;;;;;;22.23;17.75;;;;;;;18.79;100.00;97069.16;10414180;28;20664;-73
2022/08/24 18:30:23;;;;;;;26.10;19.42;;;;;;;18.75;100.00;97083.00;10413715;28;20242;-72
2022/08/24 18:35:23;;;;;;;22.80;18.92;;;;;;;18.60;100.00;97088.47;10396233;28;20312;-72
2022/08/24 18:40:25;;;;;;;24.92;18.95;;;;;;;18.40;100.00;97096.34;10413595;28;20798;-74
2022/08/24 18:45:28;;;;;;;27.23;19.25;;;;;;;18.25;100.00;97104.41;10412914;28;20189;-73
2022/08/24 18:50:30;;;;;;;30.73;22.10;;;;;;;18.10;100.00;97101.88;10395794;28;20291;-73
2022/08/24 18:55:30;;;;;;;29.20;21.80;;;;;;;17.96;100.00;97117.72;10395812;28;20227;-74
2022/08/24 19:00:31;;;;;;;26.50;21.55;;;;;;;17.90;100.00;97120.28;10395519;28;20203;-73
2022/08/24 19:05:31;;;;;;;30.33;21.30;;;;;;;17.87;100.00;97125.94;10412307;28;20437;-73
2022/08/24 19:10:37;;;;;;;26.02;22.67;;;;;;;17.77;100.00;97126.28;10412891;28;20196;-73
2022/08/24 19:15:37;;;;;;;24.10;21.38;;;;;;;17.70;100.00;97122.75;10412351;28;20227;-73
2022/08/24 19:20:39;;;;;;;28.33;21.55;;;;;;;17.45;100.00;97123.97;10412400;28;20291;-73
2022/08/24 19:25:42;;;;;;;29.77;20.63;;;;;;;17.37;100.00;97132.06;10411857;28;20192;-73
2022/08/24 19:30:43;;;;;;;30.05;21.70;;;;;;;17.29;100.00;97132.19;10412120;28;20283;-73
2022/08/24 19:35:43;;;;;;;30.48;21.25;;;;;;;17.24;100.00;97134.56;10411481;28;20231;-73
2022/08/24 19:40:44;;;;;;;33.08;21.83;;;;;;;17.07;100.00;97132.16;10411459;28;20220;-73
2022/08/24 19:46:04;;;;;;;32.47;24.83;;;;;;;16.94;100.00;97140.78;10393082;28;20364;-74
2022/08/24 19:51:07;;;;;;;29.02;24.17;;;;;;;16.87;100.00;97145.16;10411343;28;20238;-73
2022/08/24 19:56:08;;;;;;;32.90;24.00;;;;;;;16.84;100.00;97144.69;10402229;28;20227;-74
2022/08/24 20:01:17;;;;;;;26.35;21.67;;;;;;;16.76;100.00;97140.34;10393493;28;20192;-74
2022/08/24 20:06:22;;;;;;;31.45;21.80;;;;;;;16.72;100.00;97137.25;10410493;28;20239;-73
2022/08/24 20:11:23;;;;;;;29.17;23.45;;;;;;;16.65;100.00;97146.91;10409945;28;20279;-74
2022/08/24 20:16:26;;;;;;;30.02;23.38;;;;;;;16.51;100.00;97155.69;10410555;28;20231;-74
2022/08/24 20:21:27;;;;;;;28.55;22.90;;;;;;;16.53;100.00;97151.84;10393607;28;20676;-74
2022/08/24 20:26:31;;;;;;;29.65;20.73;;;;;;;16.45;100.00;97151.09;10410726;28;20188;-74
2022/08/24 20:31:32;;;;;;;30.70;23.52;;;;;;;16.37;100.00;97147.56;10393776;28;20280;-74
2022/08/24 20:36:37;;;;;;;28.70;22.00;;;;;;;16.32;100.00;97136.72;10410766;28;20227;-73
2022/08/24 20:41:39;;;;;;;32.42;23.55;;;;;;;16.23;100.00;97143.09;10399528;28;20197;-73
2022/08/24 20:46:40;;;;;;;29.30;21.90;;;;;;;16.18;100.00;97141.00;10418711;28;20279;-74
2022/08/24 20:51:41;;;;;;;33.25;24.23;;;;;;;16.08;100.00;97139.63;10410487;28;20200;-74
2022/08/24 20:56:42;;;;;;;31.27;22.15;;;;;;;16.10;100.00;97135.78;10409680;28;20228;-73
2022/08/24 21:01:42;;;;;;;35.72;22.33;;;;;;;16.17;100.00;97144.66;10392217;28;20192;-74
2022/08/24 21:06:43;;;;;;;32.03;23.10;;;;;;;16.08;100.00;97143.09;10408965;28;20235;-74
2022/08/24 21:11:45;;;;;;;28.75;23.15;;;;;;;16.02;100.00;97143.81;10409527;28;20193;-74
2022/08/24 21:16:45;;;;;;;35.33;23.30;;;;;;;15.91;100.00;97136.31;10409070;28;20246;-75
2022/08/24 21:21:46;;;;;;;34.28;24.35;;;;;;;15.91;100.00;97144.25;10414202;28;20200;-74
2022/08/24 21:26:46;;;;;;;34.30;21.67;;;;;;;15.90;100.00;97142.63;10417083;28;20717;-74
2022/08/24 21:34:39;;;;;;;26.27;20.13;;;;;;;15.90;100.00;97151.34;10417597;28;20200;-75
2022/08/24 21:37:16;;;;;;;28.77;21.05;;;;;;;15.82;100.00;97154.09;10416779;28;20701;-74
2022/08/24 21:42:16;;;;;;;25.05;20.20;;;;;;;15.77;100.00;97153.75;10417289;28;20189;-74
2022/08/24 21:47:16;;;;;;;30.88;21.45;;;;;;;15.74;100.00;97159.38;10398594;28;20657;-74
2022/08/24 21:52:17;;;;;;;26.75;20.92;;;;;;;15.72;100.00;97162.19;10416688;28;20196;-74
2022/08/24 21:57:17;;;;;;;35.25;21.65;;;;;;;15.55;100.00;97161.50;10416133;28;20224;-74
2022/08/24 22:02:19;;;;;;;26.77;20.60;;;;;;;15.56;100.00;97163.16;10415795;28;20198;-73
2022/08/24 22:07:19;;;;;;;24.95;19.55;;;;;;;15.58;100.00;97160.34;10415923;28;20243;-73
2022/08/24 22:12:19;;;;;;;29.15;18.25;;;;;;;15.52;100.00;97164.50;10415605;28;20196;-75
2022/08/24 22:17:20;;;;;;;32.00;20.80;;;;;;;15.51;100.00;97152.28;10415636;28;20232;-74
2022/08/24 22:22:20;;;;;;;26.23;19.70;;;;;;;15.55;100.00;97161.50;10415278;28;20203;-74
2022/08/24 22:27:21;;;;;;;30.90;19.58;;;;;;;15.55;100.00;97156.22;10415184;28;20192;-75
2022/08/24 22:32:23;;;;;;;26.67;19.23;;;;;;;15.56;100.00;97149.97;10414730;28;20691;-73
2022/08/24 22:37:23;;;;;;;28.30;19.45;;;;;;;15.41;100.00;97149.91;10414530;28;20589;-74
2022/08/24 22:42:23;;;;;;;25.42;17.33;;;;;;;15.28;100.00;97144.38;10414718;28;20284;-74
2022/08/24 22:47:24;;;;;;;28.75;18.13;;;;;;;15.21;100.00;97146.91;10396972;28;20193;-73
2022/08/24 22:52:25;;;;;;;29.98;19.05;;;;;;;15.14;100.00;97143.31;10453618;28;20202;-74
2022/08/24 22:57:25;;;;;;;26.77;19.58;;;;;;;15.10;100.00;97147.28;10455261;28;20277;-73
2022/08/24 23:02:26;;;;;;;26.30;19.73;;;;;;;15.16;100.00;97141.34;10455002;28;20266;-74
2022/08/24 23:07:26;;;;;;;25.33;18.67;;;;;;;15.18;100.00;97141.16;10454422;28;20242;-74
2022/08/24 23:12:27;;;;;;;25.75;18.67;;;;;;;15.13;100.00;97146.94;10454503;28;20672;-73
2022/08/24 23:17:27;;;;;;;29.63;19.58;;;;;;;15.09;100.00;97137.75;10454363;28;20242;-73
2022/08/24 23:22:31;;;;;;;21.58;17.08;;;;;;;15.00;100.00;97136.16;10454251;28;20199;-73
2022/08/24 23:27:32;;;;;;;28.17;21.13;;;;;;;14.96;100.00;97130.38;10453805;28;20180;-73